Time,TemperatureF,DewpointF,PressureIn,WindDirection,WindDirectionDegrees,WindSpeedMPH,WindSpeedGustMPH,Humidity,HourlyPrecipIn,Conditions,Clouds,dailyrainin,SoftwareType,DateUTC
2013-03-17 00:11:00,33.0,31.0,29.98,East,87,0.0,0.0,92,0.00,,,0.00,weatherlink.com 1.10,2013-03-17 04:11:00,
2013-03-17 00:56:00,32.9,31.0,29.97,East,88,0.0,0.0,92,0.00,,,0.00,weatherlink.com 1.10,2013-03-17 04:56:00,
2013-03-17 01:11:00,32.9,31.0,29.97,East,87,0.0,0.0,92,0.00,,,0.00,weatherlink.com 1.10,2013-03-17 05:11:00,
2013-03-17 01:26:00,32.7,31.0,29.97,East,87,0.0,0.0,92,0.00,,,0.00,weatherlink.com 1.10,2013-03-17 05:26:00,
2013-03-17 01:41:00,32.5,31.0,29.98,East,87,0.0,0.0,92,0.00,,,0.00,weatherlink.com 1.10,2013-03-17 05:41:00,
2013-03-17 01:56:00,32.5,31.0,29.98,East,87,0.0,0.0,92,0.00,,,0.00,weatherlink.com 1.10,2013-03-17 05:56:00,
2013-03-17 02:11:00,32.6,31.0,29.99,East,87,0.0,0.0,92,0.00,,,0.00,weatherlink.com 1.10,2013-03-17 06:11:00,
2013-03-17 02:26:00,32.7,31.0,30.00,East,87,0.0,0.0,92,0.00,,,0.00,weatherlink.com 1.10,2013-03-17 06:26:00,
2013-03-17 02:41:00,32.6,31.0,30.00,East,87,0.0,0.0,92,0.00,,,0.00,weatherlink.com 1.10,2013-03-17 06:41:00,
2013-03-17 02:56:00,32.7,31.0,30.01,East,87,0.0,0.0,92,0.00,,,0.00,weatherlink.com 1.10,2013-03-17 06:56:00,
2013-03-17 03:11:00,32.7,31.0,30.02,East,88,0.0,0.0,92,0.00,,,0.00,weatherlink.com 1.10,2013-03-17 07:11:00,
2013-03-17 03:26:00,32.7,31.0,30.02,East,88,0.0,0.0,92,0.00,,,0.00,weatherlink.com 1.10,2013-03-17 07:26:00,
2013-03-17 03:41:00,32.7,31.0,30.03,East,87,0.0,0.0,92,0.00,,,0.00,weatherlink.com 1.10,2013-03-17 07:41:00,
2013-03-17 03:56:00,32.7,31.0,30.02,East,88,0.0,0.0,92,0.00,,,0.00,weatherlink.com 1.10,2013-03-17 07:56:00,
2013-03-17 04:11:00,32.5,31.0,30.03,East,88,0.0,0.0,92,0.00,,,0.00,weatherlink.com 1.10,2013-03-17 08:11:00,
2013-03-17 04:26:00,32.5,31.0,30.04,East,87,0.0,0.0,92,0.00,,,0.00,weatherlink.com 1.10,2013-03-17 08:26:00,
2013-03-17 04:41:00,32.5,31.0,30.04,East,87,0.0,0.0,92,0.00,,,0.00,weatherlink.com 1.10,2013-03-17 08:41:00,
2013-03-17 04:56:00,32.5,31.0,30.03,East,87,0.0,0.0,92,0.00,,,0.00,weatherlink.com 1.10,2013-03-17 08:56:00,
2013-03-17 05:11:00,32.4,30.0,30.04,East,87,0.0,0.0,92,0.00,,,0.00,weatherlink.com 1.10,2013-03-17 09:11:00,
2013-03-17 05:26:00,32.2,30.0,30.04,East,87,0.0,0.0,92,0.00,,,0.00,weatherlink.com 1.10,2013-03-17 09:26:00,
2013-03-17 05:41:00,32.1,30.0,30.04,East,87,0.0,0.0,92,0.00,,,0.00,weatherlink.com 1.10,2013-03-17 09:41:00,
2013-03-17 05:56:00,32.1,30.0,30.06,East,87,0.0,0.0,92,0.00,,,0.00,weatherlink.com 1.10,2013-03-17 09:56:00,
2013-03-17 06:11:00,32.3,30.0,30.08,East,87,0.0,0.0,92,0.00,,,0.00,weatherlink.com 1.10,2013-03-17 10:11:00,
2013-03-17 06:26:00,32.3,30.0,30.08,East,88,0.0,0.0,92,0.00,,,0.00,weatherlink.com 1.10,2013-03-17 10:26:00,
2013-03-17 06:41:00,32.3,30.0,30.09,East,87,0.0,0.0,92,0.00,,,0.00,weatherlink.com 1.10,2013-03-17 10:41:00,
2013-03-17 06:57:00,32.3,30.0,30.09,East,87,0.0,0.0,92,0.00,,,0.00,weatherlink.com 1.10,2013-03-17 10:57:00,
2013-03-17 07:27:00,32.3,30.0,30.11,East,87,0.0,0.0,92,0.00,,,0.00,weatherlink.com 1.10,2013-03-17 11:27:00,
2013-03-17 07:42:00,32.4,30.0,30.12,East,87,0.0,0.0,92,0.00,,,0.00,weatherlink.com 1.10,2013-03-17 11:42:00,
2013-03-17 07:57:00,32.4,30.0,30.14,East,88,0.0,0.0,92,0.00,,,0.00,weatherlink.com 1.10,2013-03-17 11:57:00,
2013-03-17 08:12:00,32.5,31.0,30.15,East,87,0.0,0.0,92,0.00,,,0.00,weatherlink.com 1.10,2013-03-17 12:12:00,
2013-03-17 08:27:00,32.5,31.0,30.15,East,87,0.0,0.0,92,0.00,,,0.00,weatherlink.com 1.10,2013-03-17 12:27:00,
2013-03-17 08:42:00,32.8,31.0,30.16,East,87,0.0,0.0,92,0.00,,,0.00,weatherlink.com 1.10,2013-03-17 12:42:00,
2013-03-17 08:57:00,33.2,31.0,30.17,East,87,0.0,0.0,92,0.00,,,0.00,weatherlink.com 1.10,2013-03-17 12:57:00,
2013-03-17 09:12:00,33.4,31.0,30.18,East,87,0.0,0.0,92,0.00,,,0.00,weatherlink.com 1.10,2013-03-17 13:12:00,
2013-03-17 09:27:00,32.8,31.0,30.19,SSE,155,0.0,2.0,92,0.00,,,0.00,weatherlink.com 1.10,2013-03-17 13:27:00,
2013-03-17 09:42:00,32.7,30.0,30.18,ESE,120,0.0,3.0,89,0.00,,,0.00,weatherlink.com 1.10,2013-03-17 13:42:00,
2013-03-17 09:57:00,33.5,30.0,30.18,SW,236,1.0,4.0,86,0.00,,,0.00,weatherlink.com 1.10,2013-03-17 13:57:00,
2013-03-17 10:12:00,33.6,29.0,30.18,SSW,200,2.0,3.0,84,0.00,,,0.00,weatherlink.com 1.10,2013-03-17 14:12:00,
2013-03-17 10:27:00,33.7,29.0,30.19,SSW,193,0.0,3.0,82,0.00,,,0.00,weatherlink.com 1.10,2013-03-17 14:27:00,
2013-03-17 10:42:00,33.7,29.0,30.20,SW,225,0.0,2.0,82,0.00,,,0.00,weatherlink.com 1.10,2013-03-17 14:42:00,
2013-03-17 10:57:00,33.5,27.0,30.21,SE,128,0.0,5.0,77,0.00,,,0.00,weatherlink.com 1.10,2013-03-17 14:57:00,
2013-03-17 11:12:00,33.7,27.0,30.21,SSW,198,0.0,2.0,77,0.00,,,0.00,weatherlink.com 1.10,2013-03-17 15:12:00,
2013-03-17 11:27:00,34.2,28.0,30.21,SW,218,0.0,1.0,77,0.00,,,0.00,weatherlink.com 1.10,2013-03-17 15:27:00,
2013-03-17 11:42:00,34.2,26.0,30.23,SSW,195,0.0,4.0,73,0.00,,,0.00,weatherlink.com 1.10,2013-03-17 15:42:00,
2013-03-17 11:57:00,34.0,26.0,30.22,ESE,118,0.0,4.0,73,0.00,,,0.00,weatherlink.com 1.10,2013-03-17 15:57:00,
2013-03-17 12:12:00,34.1,26.0,30.22,West,262,0.0,2.0,73,0.00,,,0.00,weatherlink.com 1.10,2013-03-17 16:12:00,
2013-03-17 12:27:00,34.3,27.0,30.23,ESE,123,1.0,2.0,74,0.00,,,0.00,weatherlink.com 1.10,2013-03-17 16:27:00,
2013-03-17 12:42:00,34.8,27.0,30.23,SSW,194,0.0,2.0,73,0.00,,,0.00,weatherlink.com 1.10,2013-03-17 16:42:00,
2013-03-17 12:57:00,35.0,28.0,30.23,SW,231,0.0,2.0,76,0.00,,,0.00,weatherlink.com 1.10,2013-03-17 16:57:00,
2013-03-17 13:12:00,35.4,27.0,30.23,WSW,239,4.0,4.0,72,0.00,,,0.00,weatherlink.com 1.10,2013-03-17 17:12:00,
2013-03-17 13:27:00,37.6,29.0,30.21,SE,128,3.0,4.0,71,0.00,,,0.00,weatherlink.com 1.10,2013-03-17 17:27:00,
2013-03-17 13:42:00,39.5,29.0,30.21,SSW,196,1.0,4.0,66,0.00,,,0.00,weatherlink.com 1.10,2013-03-17 17:42:00,
2013-03-17 13:57:00,39.8,29.0,30.21,SSW,208,3.0,4.0,66,0.00,,,0.00,weatherlink.com 1.10,2013-03-17 17:57:00,
2013-03-17 14:12:00,40.6,31.0,30.21,SW,228,4.0,4.0,68,0.00,,,0.00,weatherlink.com 1.10,2013-03-17 18:12:00,
2013-03-17 14:27:00,40.0,28.0,30.20,West,269,0.0,4.0,63,0.00,,,0.00,weatherlink.com 1.10,2013-03-17 18:27:00,
2013-03-17 14:42:00,40.3,29.0,30.20,WNW,285,3.0,5.0,65,0.00,,,0.00,weatherlink.com 1.10,2013-03-17 18:42:00,
2013-03-17 14:57:00,40.5,29.0,30.19,SSW,194,1.0,5.0,65,0.00,,,0.00,weatherlink.com 1.10,2013-03-17 18:57:00,
2013-03-17 15:12:00,41.0,28.0,30.20,WSW,239,1.0,5.0,60,0.00,,,0.00,weatherlink.com 1.10,2013-03-17 19:12:00,
2013-03-17 15:28:00,41.1,27.0,30.20,ENE,62,0.0,5.0,58,0.00,,,0.00,weatherlink.com 1.10,2013-03-17 19:28:00,
2013-03-17 15:43:00,41.1,27.0,30.20,NNE,23,0.0,3.0,58,0.00,,,0.00,weatherlink.com 1.10,2013-03-17 19:43:00,
2013-03-17 15:58:00,41.8,28.0,30.21,West,264,2.0,3.0,58,0.00,,,0.00,weatherlink.com 1.10,2013-03-17 19:58:00,
2013-03-17 16:13:00,41.1,28.0,30.21,NNW,327,2.0,7.0,59,0.00,,,0.00,weatherlink.com 1.10,2013-03-17 20:13:00,
2013-03-17 16:28:00,40.2,27.0,30.21,South,184,2.0,3.0,60,0.00,,,0.00,weatherlink.com 1.10,2013-03-17 20:28:00,
2013-03-17 16:43:00,39.7,27.0,30.22,SW,236,2.0,2.0,61,0.00,,,0.00,weatherlink.com 1.10,2013-03-17 20:43:00,
2013-03-17 16:58:00,39.6,25.0,30.22,SW,231,0.0,1.0,57,0.00,,,0.00,weatherlink.com 1.10,2013-03-17 20:58:00,
2013-03-17 17:13:00,39.1,26.0,30.22,WSW,242,1.0,3.0,59,0.00,,,0.00,weatherlink.com 1.10,2013-03-17 21:13:00,
2013-03-17 17:28:00,38.7,25.0,30.22,WSW,252,1.0,1.0,59,0.00,,,0.00,weatherlink.com 1.10,2013-03-17 21:28:00,
2013-03-17 17:43:00,38.6,26.0,30.23,NE,56,0.0,2.0,60,0.00,,,0.00,weatherlink.com 1.10,2013-03-17 21:43:00,
2013-03-17 17:58:00,38.4,24.0,30.24,SSE,148,0.0,2.0,56,0.00,,,0.00,weatherlink.com 1.10,2013-03-17 21:58:00,
2013-03-17 18:13:00,38.0,25.0,30.25,SSW,211,0.0,1.0,59,0.00,,,0.00,weatherlink.com 1.10,2013-03-17 22:13:00,
2013-03-17 18:28:00,37.6,24.0,30.24,SW,214,0.0,0.0,58,0.00,,,0.00,weatherlink.com 1.10,2013-03-17 22:28:00,
2013-03-17 18:43:00,37.2,24.0,30.25,SW,214,0.0,0.0,60,0.00,,,0.00,weatherlink.com 1.10,2013-03-17 22:43:00,
2013-03-17 18:58:00,36.7,25.0,30.26,SW,214,0.0,0.0,63,0.00,,,0.00,weatherlink.com 1.10,2013-03-17 22:58:00,
2013-03-17 19:13:00,36.0,23.0,30.27,SE,132,0.0,2.0,60,0.00,,,0.00,weatherlink.com 1.10,2013-03-17 23:13:00,
2013-03-17 19:28:00,35.2,24.0,30.27,SE,132,1.0,1.0,64,0.00,,,0.00,weatherlink.com 1.10,2013-03-17 23:28:00,
2013-03-17 19:43:00,34.7,24.0,30.28,SW,233,0.0,1.0,65,0.00,,,0.00,weatherlink.com 1.10,2013-03-17 23:43:00,
2013-03-17 19:58:00,34.4,24.0,30.28,SW,233,0.0,0.0,67,0.00,,,0.00,weatherlink.com 1.10,2013-03-17 23:58:00,
2013-03-17 20:13:00,33.9,24.0,30.28,SW,233,0.0,0.0,66,0.00,,,0.00,weatherlink.com 1.10,2013-03-18 00:13:00,
2013-03-17 20:28:00,33.8,23.0,30.29,SW,233,0.0,0.0,65,0.00,,,0.00,weatherlink.com 1.10,2013-03-18 00:28:00,
2013-03-17 20:43:00,33.5,24.0,30.30,SW,233,0.0,0.0,67,0.00,,,0.00,weatherlink.com 1.10,2013-03-18 00:43:00,
2013-03-17 20:58:00,33.1,24.0,30.30,SW,233,0.0,0.0,70,0.00,,,0.00,weatherlink.com 1.10,2013-03-18 00:58:00,
2013-03-17 21:13:00,32.5,25.0,30.31,SW,233,0.0,0.0,73,0.00,,,0.00,weatherlink.com 1.10,2013-03-18 01:13:00,
2013-03-17 21:28:00,32.1,25.0,30.31,SW,233,0.0,0.0,75,0.00,,,0.00,weatherlink.com 1.10,2013-03-18 01:28:00,
2013-03-17 21:43:00,31.7,26.0,30.31,SSE,160,0.0,0.0,79,0.00,,,0.00,weatherlink.com 1.10,2013-03-18 01:43:00,
2013-03-17 21:58:00,31.4,26.0,30.32,SSE,161,0.0,1.0,81,0.00,,,0.00,weatherlink.com 1.10,2013-03-18 01:58:00,
2013-03-17 22:13:00,31.0,26.0,30.32,SSE,160,0.0,1.0,80,0.00,,,0.00,weatherlink.com 1.10,2013-03-18 02:13:00,
2013-03-17 22:28:00,30.6,25.0,30.32,SSE,160,0.0,1.0,81,0.00,,,0.00,weatherlink.com 1.10,2013-03-18 02:28:00,
2013-03-17 22:43:00,30.3,25.0,30.32,SSE,160,0.0,1.0,82,0.00,,,0.00,weatherlink.com 1.10,2013-03-18 02:43:00,
2013-03-17 22:58:00,29.9,25.0,30.32,SSE,160,0.0,1.0,83,0.00,,,0.00,weatherlink.com 1.10,2013-03-18 02:58:00,
2013-03-17 23:13:00,29.6,25.0,30.32,SSE,160,0.0,1.0,84,0.00,,,0.00,weatherlink.com 1.10,2013-03-18 03:13:00,
2013-03-17 23:28:00,29.5,25.0,30.32,SE,139,0.0,0.0,84,0.00,,,0.00,weatherlink.com 1.10,2013-03-18 03:28:00,
2013-03-17 23:43:00,29.2,25.0,30.32,SE,139,0.0,0.0,85,0.00,,,0.00,weatherlink.com 1.10,2013-03-18 03:43:00,
2013-03-17 23:58:00,29.1,25.0,30.32,SE,140,0.0,0.0,85,0.00,,,0.00,weatherlink.com 1.10,2013-03-18 03:58:00,